sensor_id;sensor_type;location;lat;lon;timestamp;temperature;humidity
1678;DHT22;6034;46.864;15.216;2023-02-18T07:15:50;11.80;87.20
1678;DHT22;6034;46.864;15.216;2023-02-18T07:18:16;11.80;88.40
1678;DHT22;6034;46.864;15.216;2023-02-18T07:20:44;11.60;88.30
1678;DHT22;6034;46.864;15.216;2023-02-18T07:23:11;11.50;88.40
1678;DHT22;6034;46.864;15.216;2023-02-18T07:25:38;11.50;88.90
1678;DHT22;6034;46.864;15.216;2023-02-18T07:28:05;11.50;88.90
1678;DHT22;6034;46.864;15.216;2023-02-18T07:30:32;11.40;90.10
1678;DHT22;6034;46.864;15.216;2023-02-18T07:33:00;11.60;90.10
1678;DHT22;6034;46.864;15.216;2023-02-18T07:35:27;11.50;89.70
1678;DHT22;6034;46.864;15.216;2023-02-18T07:37:54;11.40;90.20
1678;DHT22;6034;46.864;15.216;2023-02-18T07:40:22;11.40;90.60
1678;DHT22;6034;46.864;15.216;2023-02-18T07:42:49;11.40;90.70
1678;DHT22;6034;46.864;15.216;2023-02-18T07:45:16;11.50;90.40
1678;DHT22;6034;46.864;15.216;2023-02-18T07:47:43;11.50;90.70
1678;DHT22;6034;46.864;15.216;2023-02-18T07:50:11;11.40;90.30
1678;DHT22;6034;46.864;15.216;2023-02-18T07:52:38;11.60;91.10
1678;DHT22;6034;46.864;15.216;2023-02-18T07:55:05;11.70;90.10
1678;DHT22;6034;46.864;15.216;2023-02-18T07:57:33;11.70;90.40
1678;DHT22;6034;46.864;15.216;2023-02-18T08:00:21;11.80;90.70
1678;DHT22;6034;46.864;15.216;2023-02-18T08:02:48;11.70;91.00
1678;DHT22;6034;46.864;15.216;2023-02-18T08:05:16;11.80;91.50
1678;DHT22;6034;46.864;15.216;2023-02-18T08:07:43;11.90;91.50
1678;DHT22;6034;46.864;15.216;2023-02-18T08:10:11;12.00;91.70
1678;DHT22;6034;46.864;15.216;2023-02-18T08:12:39;12.10;91.70
1678;DHT22;6034;46.864;15.216;2023-02-18T08:15:06;11.80;91.10
1678;DHT22;6034;46.864;15.216;2023-02-18T08:17:33;11.80;90.80
1678;DHT22;6034;46.864;15.216;2023-02-18T08:20:00;12.00;90.70
1678;DHT22;6034;46.864;15.216;2023-02-18T08:22:28;12.00;90.90
1678;DHT22;6034;46.864;15.216;2023-02-18T08:24:55;12.00;91.00
1678;DHT22;6034;46.864;15.216;2023-02-18T08:27:22;12.10;90.90
1678;DHT22;6034;46.864;15.216;2023-02-18T08:29:50;12.00;90.70
1678;DHT22;6034;46.864;15.216;2023-02-18T08:32:17;11.90;90.20
1678;DHT22;6034;46.864;15.216;2023-02-18T08:34:44;11.80;89.50
1678;DHT22;6034;46.864;15.216;2023-02-18T08:37:10;11.50;90.00
1678;DHT22;6034;46.864;15.216;2023-02-18T08:39:39;11.50;90.40
1678;DHT22;6034;46.864;15.216;2023-02-18T08:42:06;11.60;90.40
1678;DHT22;6034;46.864;15.216;2023-02-18T08:44:33;11.50;90.50
1678;DHT22;6034;46.864;15.216;2023-02-18T08:47:00;11.60;90.50
1678;DHT22;6034;46.864;15.216;2023-02-18T08:49:27;11.70;90.60
1678;DHT22;6034;46.864;15.216;2023-02-18T08:51:54;11.80;90.40
1678;DHT22;6034;46.864;15.216;2023-02-18T08:54:21;12.00;90.60
1678;DHT22;6034;46.864;15.216;2023-02-18T08:56:52;12.20;90.70
1678;DHT22;6034;46.864;15.216;2023-02-18T08:59:19;12.30;90.90
1678;DHT22;6034;46.864;15.216;2023-02-18T09:01:46;12.40;90.70
1678;DHT22;6034;46.864;15.216;2023-02-18T09:04:13;12.50;90.60
1678;DHT22;6034;46.864;15.216;2023-02-18T09:06:40;12.50;90.50
1678;DHT22;6034;46.864;15.216;2023-02-18T09:09:07;12.30;90.90
1678;DHT22;6034;46.864;15.216;2023-02-18T09:11:34;12.60;90.70
1678;DHT22;6034;46.864;15.216;2023-02-18T09:14:03;12.20;90.40
1678;DHT22;6034;46.864;15.216;2023-02-18T09:16:30;12.60;90.70
1678;DHT22;6034;46.864;15.216;2023-02-18T09:18:57;12.80;90.50
1678;DHT22;6034;46.864;15.216;2023-02-18T09:21:24;12.90;89.40
1678;DHT22;6034;46.864;15.216;2023-02-18T09:23:52;13.00;90.20
1678;DHT22;6034;46.864;15.216;2023-02-18T09:26:19;13.20;90.50
1678;DHT22;6034;46.864;15.216;2023-02-18T09:28:47;13.30;90.50
1678;DHT22;6034;46.864;15.216;2023-02-18T09:31:17;13.50;90.00
1678;DHT22;6034;46.864;15.216;2023-02-18T09:33:45;13.60;90.00
1678;DHT22;6034;46.864;15.216;2023-02-18T09:36:12;13.70;90.00
1678;DHT22;6034;46.864;15.216;2023-02-18T09:38:39;13.80;90.00
1678;DHT22;6034;46.864;15.216;2023-02-18T09:41:07;13.90;90.00
1678;DHT22;6034;46.864;15.216;2023-02-18T09:43:35;13.90;89.00
1678;DHT22;6034;46.864;15.216;2023-02-18T09:46:06;13.60;89.60
1678;DHT22;6034;46.864;15.216;2023-02-18T09:48:47;13.50;90.40
1678;DHT22;6034;46.864;15.216;2023-02-18T09:51:14;13.40;90.30
1678;DHT22;6034;46.864;15.216;2023-02-18T09:53:42;13.70;88.50
1678;DHT22;6034;46.864;15.216;2023-02-18T09:56:09;13.90;89.80
1678;DHT22;6034;46.864;15.216;2023-02-18T09:58:37;13.90;88.80
1678;DHT22;6034;46.864;15.216;2023-02-18T10:01:05;14.00;88.50
1678;DHT22;6034;46.864;15.216;2023-02-18T10:03:36;14.10;88.60
1678;DHT22;6034;46.864;15.216;2023-02-18T10:06:08;14.30;88.20
1678;DHT22;6034;46.864;15.216;2023-02-18T10:08:36;14.50;87.30
1678;DHT22;6034;46.864;15.216;2023-02-18T10:11:05;14.50;86.50
1678;DHT22;6034;46.864;15.216;2023-02-18T10:13:39;14.50;88.40
1678;DHT22;6034;46.864;15.216;2023-02-18T10:16:07;14.80;88.50
1678;DHT22;6034;46.864;15.216;2023-02-18T10:18:35;15.00;87.80
1678;DHT22;6034;46.864;15.216;2023-02-18T10:21:08;15.00;86.70
1678;DHT22;6034;46.864;15.216;2023-02-18T10:23:37;14.90;88.30
1678;DHT22;6034;46.864;15.216;2023-02-18T10:26:06;14.80;87.90
1678;DHT22;6034;46.864;15.216;2023-02-18T10:28:35;14.90;88.60
1678;DHT22;6034;46.864;15.216;2023-02-18T10:31:04;15.10;89.90
1678;DHT22;6034;46.864;15.216;2023-02-18T10:33:36;14.90;88.20
1678;DHT22;6034;46.864;15.216;2023-02-18T10:36:10;14.50;87.80
1678;DHT22;6034;46.864;15.216;2023-02-18T10:38:43;14.80;88.90
1678;DHT22;6034;46.864;15.216;2023-02-18T10:41:15;14.90;90.00
1678;DHT22;6034;46.864;15.216;2023-02-18T10:43:47;14.90;89.40
1678;DHT22;6034;46.864;15.216;2023-02-18T10:46:20;15.00;88.80
1678;DHT22;6034;46.864;15.216;2023-02-18T10:48:55;14.90;88.50
1678;DHT22;6034;46.864;15.216;2023-02-18T10:51:30;14.70;87.80
1678;DHT22;6034;46.864;15.216;2023-02-18T10:53:58;15.10;89.30
1678;DHT22;6034;46.864;15.216;2023-02-18T10:56:34;15.20;88.90
1678;DHT22;6034;46.864;15.216;2023-02-18T10:59:04;15.50;88.40
1678;DHT22;6034;46.864;15.216;2023-02-18T11:01:32;15.40;86.90
1678;DHT22;6034;46.864;15.216;2023-02-18T11:04:04;15.30;88.00
1678;DHT22;6034;46.864;15.216;2023-02-18T11:06:37;15.40;87.80
1678;DHT22;6034;46.864;15.216;2023-02-18T11:09:05;15.40;86.80
1678;DHT22;6034;46.864;15.216;2023-02-18T11:11:32;16.20;89.10
1678;DHT22;6034;46.864;15.216;2023-02-18T11:14:01;15.40;88.10
1678;DHT22;6034;46.864;15.216;2023-02-18T11:16:36;15.50;88.30
1678;DHT22;6034;46.864;15.216;2023-02-18T11:19:03;15.50;88.00
1678;DHT22;6034;46.864;15.216;2023-02-18T11:21:31;15.70;88.90
1678;DHT22;6034;46.864;15.216;2023-02-18T11:24:07;15.80;88.10
1678;DHT22;6034;46.864;15.216;2023-02-18T11:26:35;15.90;87.90
1678;DHT22;6034;46.864;15.216;2023-02-18T11:29:04;15.90;87.50
1678;DHT22;6034;46.864;15.216;2023-02-18T11:31:37;15.90;86.20
1678;DHT22;6034;46.864;15.216;2023-02-18T11:34:05;16.10;86.80
1678;DHT22;6034;46.864;15.216;2023-02-18T11:36:33;16.10;86.30
1678;DHT22;6034;46.864;15.216;2023-02-18T11:39:01;16.00;86.20
1678;DHT22;6034;46.864;15.216;2023-02-18T11:41:33;15.70;86.20
1678;DHT22;6034;46.864;15.216;2023-02-18T11:44:00;15.60;86.80
1678;DHT22;6034;46.864;15.216;2023-02-18T11:46:28;15.80;87.80
1678;DHT22;6034;46.864;15.216;2023-02-18T11:48:55;15.90;88.20
1678;DHT22;6034;46.864;15.216;2023-02-18T11:51:36;15.90;87.50
1678;DHT22;6034;46.864;15.216;2023-02-18T11:54:21;15.90;87.60
1678;DHT22;6034;46.864;15.216;2023-02-18T11:56:54;15.90;87.80
1678;DHT22;6034;46.864;15.216;2023-02-18T11:59:22;15.90;88.30
1678;DHT22;6034;46.864;15.216;2023-02-18T12:01:49;15.90;88.50
1678;DHT22;6034;46.864;15.216;2023-02-18T12:04:17;15.60;86.80
1678;DHT22;6034;46.864;15.216;2023-02-18T12:06:47;15.40;86.40
1678;DHT22;6034;46.864;15.216;2023-02-18T12:09:18;15.50;88.60
1678;DHT22;6034;46.864;15.216;2023-02-18T12:11:47;15.60;88.80
1678;DHT22;6034;46.864;15.216;2023-02-18T12:14:18;15.70;88.00
1678;DHT22;6034;46.864;15.216;2023-02-18T12:16:49;15.60;87.80
1678;DHT22;6034;46.864;15.216;2023-02-18T12:19:26;15.70;89.50
1678;DHT22;6034;46.864;15.216;2023-02-18T12:21:58;15.70;89.00
1678;DHT22;6034;46.864;15.216;2023-02-18T12:24:31;15.70;89.70
1678;DHT22;6034;46.864;15.216;2023-02-18T12:27:04;15.70;89.00
1678;DHT22;6034;46.864;15.216;2023-02-18T12:29:40;15.60;88.70
1678;DHT22;6034;46.864;15.216;2023-02-18T12:32:15;15.60;89.00
1678;DHT22;6034;46.864;15.216;2023-02-18T12:37:45;15.60;88.30
1678;DHT22;6034;46.864;15.216;2023-02-18T12:40:29;15.60;88.50
1678;DHT22;6034;46.864;15.216;2023-02-18T12:43:00;15.50;88.10
1678;DHT22;6034;46.864;15.216;2023-02-18T12:45:48;15.50;87.50
1678;DHT22;6034;46.864;15.216;2023-02-18T12:48:24;15.50;87.70
1678;DHT22;6034;46.864;15.216;2023-02-18T12:51:01;15.40;88.00
1678;DHT22;6034;46.864;15.216;2023-02-18T12:53:44;15.20;87.40
1678;DHT22;6034;46.864;15.216;2023-02-18T12:56:22;15.20;86.80
1678;DHT22;6034;46.864;15.216;2023-02-18T12:58:54;15.20;87.30
1678;DHT22;6034;46.864;15.216;2023-02-18T13:01:34;15.00;85.10
1678;DHT22;6034;46.864;15.216;2023-02-18T13:04:19;14.90;85.80
1678;DHT22;6034;46.864;15.216;2023-02-18T13:09:45;14.80;83.70
1678;DHT22;6034;46.864;15.216;2023-02-18T13:12:18;14.70;85.20
1678;DHT22;6034;46.864;15.216;2023-02-18T13:14:47;14.90;86.50
1678;DHT22;6034;46.864;15.216;2023-02-18T13:17:18;14.90;86.60
1678;DHT22;6034;46.864;15.216;2023-02-18T13:19:47;14.80;85.70
1678;DHT22;6034;46.864;15.216;2023-02-18T13:22:17;14.50;83.90
1678;DHT22;6034;46.864;15.216;2023-02-18T13:24:47;14.60;86.00
1678;DHT22;6034;46.864;15.216;2023-02-18T13:27:17;14.70;85.30
1678;DHT22;6034;46.864;15.216;2023-02-18T13:29:46;14.70;85.50
1678;DHT22;6034;46.864;15.216;2023-02-18T13:32:21;14.70;85.10
1678;DHT22;6034;46.864;15.216;2023-02-18T13:34:53;14.60;83.60
1678;DHT22;6034;46.864;15.216;2023-02-18T13:37:25;14.60;84.10
1678;DHT22;6034;46.864;15.216;2023-02-18T13:39:54;14.50;84.70
1678;DHT22;6034;46.864;15.216;2023-02-18T13:42:25;14.40;84.20
1678;DHT22;6034;46.864;15.216;2023-02-18T13:45:03;14.50;85.10
1678;DHT22;6034;46.864;15.216;2023-02-18T13:47:38;14.50;84.80
1678;DHT22;6034;46.864;15.216;2023-02-18T13:50:15;14.50;84.90
1678;DHT22;6034;46.864;15.216;2023-02-18T13:52:50;14.50;84.60
1678;DHT22;6034;46.864;15.216;2023-02-18T13:55:18;14.40;83.60
1678;DHT22;6034;46.864;15.216;2023-02-18T13:57:46;14.30;82.60
1678;DHT22;6034;46.864;15.216;2023-02-18T14:00:14;14.30;83.30
1678;DHT22;6034;46.864;15.216;2023-02-18T14:02:56;14.30;83.70
1678;DHT22;6034;46.864;15.216;2023-02-18T14:05:23;14.20;84.30
1678;DHT22;6034;46.864;15.216;2023-02-18T14:07:51;14.20;84.30
1678;DHT22;6034;46.864;15.216;2023-02-18T14:10:30;14.10;87.50
1678;DHT22;6034;46.864;15.216;2023-02-18T14:15:51;14.10;86.60
1678;DHT22;6034;46.864;15.216;2023-02-18T14:18:24;14.00;87.20
1678;DHT22;6034;46.864;15.216;2023-02-18T14:20:57;14.00;86.00
1678;DHT22;6034;46.864;15.216;2023-02-18T14:23:42;14.00;85.80
1678;DHT22;6034;46.864;15.216;2023-02-18T14:26:16;13.70;86.40
1678;DHT22;6034;46.864;15.216;2023-02-18T14:28:48;13.80;88.30
1678;DHT22;6034;46.864;15.216;2023-02-18T14:31:20;13.90;87.80
1678;DHT22;6034;46.864;15.216;2023-02-18T14:33:53;13.90;87.10
1678;DHT22;6034;46.864;15.216;2023-02-18T14:36:28;13.50;84.90
1678;DHT22;6034;46.864;15.216;2023-02-18T14:38:59;13.70;86.60
1678;DHT22;6034;46.864;15.216;2023-02-18T14:41:31;13.70;87.30
1678;DHT22;6034;46.864;15.216;2023-02-18T14:44:08;13.70;87.30
1678;DHT22;6034;46.864;15.216;2023-02-18T14:46:45;13.70;87.70
1678;DHT22;6034;46.864;15.216;2023-02-18T14:52:04;13.60;89.40
1678;DHT22;6034;46.864;15.216;2023-02-18T14:54:32;13.50;88.50
1678;DHT22;6034;46.864;15.216;2023-02-18T14:57:00;13.50;86.00
1678;DHT22;6034;46.864;15.216;2023-02-18T14:59:31;13.40;87.70
1678;DHT22;6034;46.864;15.216;2023-02-18T15:02:00;13.40;88.40
1678;DHT22;6034;46.864;15.216;2023-02-18T15:04:27;13.20;88.00
1678;DHT22;6034;46.864;15.216;2023-02-18T15:06:58;13.20;86.40
1678;DHT22;6034;46.864;15.216;2023-02-18T15:09:28;13.10;86.50
1678;DHT22;6034;46.864;15.216;2023-02-18T15:11:56;13.10;85.10
1678;DHT22;6034;46.864;15.216;2023-02-18T15:14:28;13.00;86.40
1678;DHT22;6034;46.864;15.216;2023-02-18T15:16:55;13.00;85.90
1678;DHT22;6034;46.864;15.216;2023-02-18T15:19:25;13.00;86.90
1678;DHT22;6034;46.864;15.216;2023-02-18T15:21:54;13.00;86.10
1678;DHT22;6034;46.864;15.216;2023-02-18T15:24:26;13.00;87.10
1678;DHT22;6034;46.864;15.216;2023-02-18T15:27:01;13.00;87.10
1678;DHT22;6034;46.864;15.216;2023-02-18T15:29:30;13.00;88.40
1678;DHT22;6034;46.864;15.216;2023-02-18T15:31:58;13.00;88.50
1678;DHT22;6034;46.864;15.216;2023-02-18T15:34:29;12.60;87.80
1678;DHT22;6034;46.864;15.216;2023-02-18T15:36:57;12.70;88.80
1678;DHT22;6034;46.864;15.216;2023-02-18T15:39:25;12.80;86.90
1678;DHT22;6034;46.864;15.216;2023-02-18T15:41:53;12.80;86.50
1678;DHT22;6034;46.864;15.216;2023-02-18T15:44:23;12.80;87.30
1678;DHT22;6034;46.864;15.216;2023-02-18T15:46:51;12.80;87.50
1678;DHT22;6034;46.864;15.216;2023-02-18T15:49:18;12.80;87.50
1678;DHT22;6034;46.864;15.216;2023-02-18T15:51:46;12.70;88.90
1678;DHT22;6034;46.864;15.216;2023-02-18T15:54:15;12.70;89.20
1678;DHT22;6034;46.864;15.216;2023-02-18T15:56:43;12.70;88.30
1678;DHT22;6034;46.864;15.216;2023-02-18T15:59:14;12.60;88.80
1678;DHT22;6034;46.864;15.216;2023-02-18T16:01:45;12.60;87.70
1678;DHT22;6034;46.864;15.216;2023-02-18T16:04:13;12.50;88.20
1678;DHT22;6034;46.864;15.216;2023-02-18T16:06:43;12.60;88.30
1678;DHT22;6034;46.864;15.216;2023-02-18T16:09:12;12.40;88.40
1678;DHT22;6034;46.864;15.216;2023-02-18T16:11:42;12.40;89.00
1678;DHT22;6034;46.864;15.216;2023-02-18T16:14:20;12.40;89.80
1678;DHT22;6034;46.864;15.216;2023-02-18T16:16:59;12.30;88.40
1678;DHT22;6034;46.864;15.216;2023-02-18T16:19:30;12.30;88.60
1678;DHT22;6034;46.864;15.216;2023-02-18T16:21:58;12.30;86.70
1678;DHT22;6034;46.864;15.216;2023-02-18T16:24:29;12.40;82.90
1678;DHT22;6034;46.864;15.216;2023-02-18T16:26:58;12.40;85.70
1678;DHT22;6034;46.864;15.216;2023-02-18T16:29:26;12.40;87.40
1678;DHT22;6034;46.864;15.216;2023-02-18T16:32:04;12.40;82.60
1678;DHT22;6034;46.864;15.216;2023-02-18T16:34:31;12.20;89.00
1678;DHT22;6034;46.864;15.216;2023-02-18T16:37:00;11.90;90.10
1678;DHT22;6034;46.864;15.216;2023-02-18T16:39:45;11.80;90.60
1678;DHT22;6034;46.864;15.216;2023-02-18T16:42:13;11.70;90.80
1678;DHT22;6034;46.864;15.216;2023-02-18T16:44:41;11.60;91.10
1678;DHT22;6034;46.864;15.216;2023-02-18T16:47:10;11.60;90.90
1678;DHT22;6034;46.864;15.216;2023-02-18T16:49:42;11.50;91.30
1678;DHT22;6034;46.864;15.216;2023-02-18T16:52:10;11.50;91.20
1678;DHT22;6034;46.864;15.216;2023-02-18T16:54:40;11.50;90.90
1678;DHT22;6034;46.864;15.216;2023-02-18T16:57:08;11.40;90.80
1678;DHT22;6034;46.864;15.216;2023-02-18T16:59:35;11.30;91.00
1678;DHT22;6034;46.864;15.216;2023-02-18T17:02:05;11.30;90.90
1678;DHT22;6034;46.864;15.216;2023-02-18T17:04:41;11.30;90.80
1678;DHT22;6034;46.864;15.216;2023-02-18T17:07:09;11.30;90.50
1678;DHT22;6034;46.864;15.216;2023-02-18T17:09:37;11.30;90.10
1678;DHT22;6034;46.864;15.216;2023-02-18T17:12:05;11.30;90.00
1678;DHT22;6034;46.864;15.216;2023-02-18T17:14:32;11.30;90.10
1678;DHT22;6034;46.864;15.216;2023-02-18T17:17:04;11.40;90.20
1678;DHT22;6034;46.864;15.216;2023-02-18T17:19:31;11.40;90.20
1678;DHT22;6034;46.864;15.216;2023-02-18T17:22:11;11.30;90.30
1678;DHT22;6034;46.864;15.216;2023-02-18T17:24:39;11.30;90.40
1678;DHT22;6034;46.864;15.216;2023-02-18T17:27:07;11.20;90.50
1678;DHT22;6034;46.864;15.216;2023-02-18T17:29:35;11.20;90.60
1678;DHT22;6034;46.864;15.216;2023-02-18T17:32:03;11.10;90.60
1678;DHT22;6034;46.864;15.216;2023-02-18T17:34:31;11.10;90.70
1678;DHT22;6034;46.864;15.216;2023-02-18T17:37:02;11.10;90.80
1678;DHT22;6034;46.864;15.216;2023-02-18T17:39:29;11.70;91.20
1678;DHT22;6034;46.864;15.216;2023-02-18T17:41:57;10.90;90.80
1678;DHT22;6034;46.864;15.216;2023-02-18T17:44:24;11.00;91.00
1678;DHT22;6034;46.864;15.216;2023-02-18T17:46:53;10.90;90.90
1678;DHT22;6034;46.864;15.216;2023-02-18T17:49:21;10.90;90.90
1678;DHT22;6034;46.864;15.216;2023-02-18T17:51:48;10.90;90.90
1678;DHT22;6034;46.864;15.216;2023-02-18T17:54:18;10.90;90.90
1678;DHT22;6034;46.864;15.216;2023-02-18T17:56:50;10.90;90.30
1678;DHT22;6034;46.864;15.216;2023-02-18T17:59:18;10.70;90.40
1678;DHT22;6034;46.864;15.216;2023-02-18T18:01:46;10.80;90.40
1678;DHT22;6034;46.864;15.216;2023-02-18T18:04:14;10.80;90.90
1678;DHT22;6034;46.864;15.216;2023-02-18T18:06:41;10.80;91.10
1678;DHT22;6034;46.864;15.216;2023-02-18T18:09:10;10.70;90.90
1678;DHT22;6034;46.864;15.216;2023-02-18T18:11:39;10.70;90.90
1678;DHT22;6034;46.864;15.216;2023-02-18T18:14:08;10.60;90.70
1678;DHT22;6034;46.864;15.216;2023-02-18T18:16:35;10.60;90.20
1678;DHT22;6034;46.864;15.216;2023-02-18T18:19:04;10.60;90.30
1678;DHT22;6034;46.864;15.216;2023-02-18T18:21:32;10.60;90.30
1678;DHT22;6034;46.864;15.216;2023-02-18T18:24:00;10.60;90.50
1678;DHT22;6034;46.864;15.216;2023-02-18T18:26:27;10.60;90.10
1678;DHT22;6034;46.864;15.216;2023-02-18T18:28:58;10.60;90.30
1678;DHT22;6034;46.864;15.216;2023-02-18T18:31:26;10.70;90.50
1678;DHT22;6034;46.864;15.216;2023-02-18T18:33:54;10.60;90.30
1678;DHT22;6034;46.864;15.216;2023-02-18T18:36:25;10.60;90.30
1678;DHT22;6034;46.864;15.216;2023-02-18T18:38:56;10.50;90.50
1678;DHT22;6034;46.864;15.216;2023-02-18T18:41:23;10.60;90.70
1678;DHT22;6034;46.864;15.216;2023-02-18T18:43:51;10.50;90.60
1678;DHT22;6034;46.864;15.216;2023-02-18T18:46:21;10.40;90.70
1678;DHT22;6034;46.864;15.216;2023-02-18T18:48:48;10.40;91.00
1678;DHT22;6034;46.864;15.216;2023-02-18T18:51:16;10.40;90.90
1678;DHT22;6034;46.864;15.216;2023-02-18T18:53:44;10.30;90.70
1678;DHT22;6034;46.864;15.216;2023-02-18T18:56:12;10.40;90.30
1678;DHT22;6034;46.864;15.216;2023-02-18T18:58:40;10.40;90.00
1678;DHT22;6034;46.864;15.216;2023-02-18T19:01:11;10.30;90.10
1678;DHT22;6034;46.864;15.216;2023-02-18T19:03:41;10.40;90.10
1678;DHT22;6034;46.864;15.216;2023-02-18T19:06:09;10.40;89.30
1678;DHT22;6034;46.864;15.216;2023-02-18T19:08:37;10.30;88.90
1678;DHT22;6034;46.864;15.216;2023-02-18T19:11:04;10.30;88.90
1678;DHT22;6034;46.864;15.216;2023-02-18T19:13:36;10.30;88.30
1678;DHT22;6034;46.864;15.216;2023-02-18T19:16:04;10.30;88.50
1678;DHT22;6034;46.864;15.216;2023-02-18T19:18:33;10.30;86.30
1678;DHT22;6034;46.864;15.216;2023-02-18T19:21:04;10.20;87.80
1678;DHT22;6034;46.864;15.216;2023-02-18T19:23:32;10.30;88.30
1678;DHT22;6034;46.864;15.216;2023-02-18T19:26:01;10.30;88.60
1678;DHT22;6034;46.864;15.216;2023-02-18T19:28:28;10.10;88.70
1678;DHT22;6034;46.864;15.216;2023-02-18T19:30:56;10.10;88.10
1678;DHT22;6034;46.864;15.216;2023-02-18T19:33:24;10.20;88.20
1678;DHT22;6034;46.864;15.216;2023-02-18T19:35:52;10.20;86.60
1678;DHT22;6034;46.864;15.216;2023-02-18T19:38:21;10.20;86.60
1678;DHT22;6034;46.864;15.216;2023-02-18T19:40:49;10.40;83.90
1678;DHT22;6034;46.864;15.216;2023-02-18T19:43:18;10.20;85.10
1678;DHT22;6034;46.864;15.216;2023-02-18T19:45:49;10.20;85.00
1678;DHT22;6034;46.864;15.216;2023-02-18T19:48:17;10.20;87.30
1678;DHT22;6034;46.864;15.216;2023-02-18T19:50:45;10.30;89.50
1678;DHT22;6034;46.864;15.216;2023-02-18T19:53:13;10.20;88.40
1678;DHT22;6034;46.864;15.216;2023-02-18T19:55:42;10.20;90.20
1678;DHT22;6034;46.864;15.216;2023-02-18T19:58:10;10.20;89.80
1678;DHT22;6034;46.864;15.216;2023-02-18T20:00:38;10.20;87.00
1678;DHT22;6034;46.864;15.216;2023-02-18T20:03:08;10.20;84.10
1678;DHT22;6034;46.864;15.216;2023-02-18T20:05:36;10.30;83.20
1678;DHT22;6034;46.864;15.216;2023-02-18T20:08:04;10.40;83.00
1678;DHT22;6034;46.864;15.216;2023-02-18T20:10:33;10.40;83.20
1678;DHT22;6034;46.864;15.216;2023-02-18T20:13:03;10.30;84.00
1678;DHT22;6034;46.864;15.216;2023-02-18T20:15:37;10.50;82.00
1678;DHT22;6034;46.864;15.216;2023-02-18T20:18:06;10.60;81.10
1678;DHT22;6034;46.864;15.216;2023-02-18T20:20:34;10.50;82.40
1678;DHT22;6034;46.864;15.216;2023-02-18T20:23:02;10.40;80.60
1678;DHT22;6034;46.864;15.216;2023-02-18T20:25:30;10.60;79.10
1678;DHT22;6034;46.864;15.216;2023-02-18T20:27:57;10.60;79.70
1678;DHT22;6034;46.864;15.216;2023-02-18T20:30:27;10.70;77.80
1678;DHT22;6034;46.864;15.216;2023-02-18T20:32:55;10.70;79.20
1678;DHT22;6034;46.864;15.216;2023-02-18T20:35:23;10.60;81.50
1678;DHT22;6034;46.864;15.216;2023-02-18T20:37:52;10.60;82.30
1678;DHT22;6034;46.864;15.216;2023-02-18T20:40:19;10.60;79.90
1678;DHT22;6034;46.864;15.216;2023-02-18T20:42:47;10.60;80.50
1678;DHT22;6034;46.864;15.216;2023-02-18T20:45:14;10.70;81.00
1678;DHT22;6034;46.864;15.216;2023-02-18T20:47:43;10.70;80.40
1678;DHT22;6034;46.864;15.216;2023-02-18T20:50:11;10.70;80.80
1678;DHT22;6034;46.864;15.216;2023-02-18T20:52:40;10.50;81.00
1678;DHT22;6034;46.864;15.216;2023-02-18T20:55:09;10.40;80.50
1678;DHT22;6034;46.864;15.216;2023-02-18T20:57:36;10.40;81.30
1678;DHT22;6034;46.864;15.216;2023-02-18T21:00:04;10.30;82.20
1678;DHT22;6034;46.864;15.216;2023-02-18T21:02:32;10.40;82.00
1678;DHT22;6034;46.864;15.216;2023-02-18T21:05:02;10.30;82.10
1678;DHT22;6034;46.864;15.216;2023-02-18T21:07:29;10.30;83.70
1678;DHT22;6034;46.864;15.216;2023-02-18T21:09:57;10.30;82.10
1678;DHT22;6034;46.864;15.216;2023-02-18T21:12:24;10.40;82.00
1678;DHT22;6034;46.864;15.216;2023-02-18T21:14:52;10.40;79.50
1678;DHT22;6034;46.864;15.216;2023-02-18T21:17:32;10.40;80.20
1678;DHT22;6034;46.864;15.216;2023-02-18T21:20:01;10.40;77.70
1678;DHT22;6034;46.864;15.216;2023-02-18T21:22:29;10.40;78.50
1678;DHT22;6034;46.864;15.216;2023-02-18T21:24:57;10.40;79.10
1678;DHT22;6034;46.864;15.216;2023-02-18T21:27:26;10.40;78.00
1678;DHT22;6034;46.864;15.216;2023-02-18T21:29:53;10.40;76.90
1678;DHT22;6034;46.864;15.216;2023-02-18T21:32:21;10.40;79.00
1678;DHT22;6034;46.864;15.216;2023-02-18T21:34:49;10.30;80.10
1678;DHT22;6034;46.864;15.216;2023-02-18T21:37:19;10.40;78.70
1678;DHT22;6034;46.864;15.216;2023-02-18T21:39:46;10.40;78.20
1678;DHT22;6034;46.864;15.216;2023-02-18T21:42:13;10.30;77.90
1678;DHT22;6034;46.864;15.216;2023-02-18T21:44:43;10.90;77.10
1678;DHT22;6034;46.864;15.216;2023-02-18T21:47:10;10.30;75.40
1678;DHT22;6034;46.864;15.216;2023-02-18T21:49:37;10.20;75.60
1678;DHT22;6034;46.864;15.216;2023-02-18T21:52:05;10.80;69.50
1678;DHT22;6034;46.864;15.216;2023-02-18T21:54:37;11.00;69.70
1678;DHT22;6034;46.864;15.216;2023-02-18T21:57:05;11.40;68.30
1678;DHT22;6034;46.864;15.216;2023-02-18T21:59:33;11.40;68.20
1678;DHT22;6034;46.864;15.216;2023-02-18T22:02:00;11.20;68.40
1678;DHT22;6034;46.864;15.216;2023-02-18T22:04:28;11.20;70.20
1678;DHT22;6034;46.864;15.216;2023-02-18T22:06:57;11.00;71.80
1678;DHT22;6034;46.864;15.216;2023-02-18T22:09:24;11.00;71.40
1678;DHT22;6034;46.864;15.216;2023-02-18T22:11:53;11.10;70.60
1678;DHT22;6034;46.864;15.216;2023-02-18T22:14:21;11.00;71.40
1678;DHT22;6034;46.864;15.216;2023-02-18T22:16:48;10.90;72.90
1678;DHT22;6034;46.864;15.216;2023-02-18T22:19:15;10.90;73.90
1678;DHT22;6034;46.864;15.216;2023-02-18T22:21:43;10.80;74.00
1678;DHT22;6034;46.864;15.216;2023-02-18T22:24:10;10.80;74.10
1678;DHT22;6034;46.864;15.216;2023-02-18T22:26:39;10.70;74.90
1678;DHT22;6034;46.864;15.216;2023-02-18T22:29:10;10.60;74.90
1678;DHT22;6034;46.864;15.216;2023-02-18T22:31:37;10.60;74.20
1678;DHT22;6034;46.864;15.216;2023-02-18T22:34:04;10.40;74.10
1678;DHT22;6034;46.864;15.216;2023-02-18T22:36:31;10.40;74.80
1678;DHT22;6034;46.864;15.216;2023-02-18T22:38:59;10.40;76.00
1678;DHT22;6034;46.864;15.216;2023-02-18T22:41:26;10.40;75.00
1678;DHT22;6034;46.864;15.216;2023-02-18T22:43:54;10.20;76.00
1678;DHT22;6034;46.864;15.216;2023-02-18T22:46:23;10.20;77.50
1678;DHT22;6034;46.864;15.216;2023-02-18T22:48:50;10.20;78.70
1678;DHT22;6034;46.864;15.216;2023-02-18T22:51:18;10.10;76.60
1678;DHT22;6034;46.864;15.216;2023-02-18T22:53:46;10.20;77.40
1678;DHT22;6034;46.864;15.216;2023-02-18T22:56:14;10.20;77.10
1678;DHT22;6034;46.864;15.216;2023-02-18T22:58:43;10.20;77.10
1678;DHT22;6034;46.864;15.216;2023-02-18T23:01:16;10.20;76.00
1678;DHT22;6034;46.864;15.216;2023-02-18T23:03:45;10.20;76.90
1678;DHT22;6034;46.864;15.216;2023-02-18T23:06:12;10.30;75.50
1678;DHT22;6034;46.864;15.216;2023-02-18T23:08:39;10.30;75.00
1678;DHT22;6034;46.864;15.216;2023-02-18T23:11:07;10.30;76.30
1678;DHT22;6034;46.864;15.216;2023-02-18T23:13:34;10.30;75.30
1678;DHT22;6034;46.864;15.216;2023-02-18T23:16:02;10.30;75.10
1678;DHT22;6034;46.864;15.216;2023-02-18T23:18:30;10.30;73.70
1678;DHT22;6034;46.864;15.216;2023-02-18T23:20:59;10.30;74.10
1678;DHT22;6034;46.864;15.216;2023-02-18T23:23:47;10.40;74.60
1678;DHT22;6034;46.864;15.216;2023-02-18T23:26:14;10.40;74.40